sensor_id;sensor_type;location;lat;lon;timestamp;pressure;altitude;pressure_sealevel;temperature;humidity
29569;BME280;16501;51.462;14.346;2022-12-18T00:01:40;101773.03;;;-4.72;100.00
29569;BME280;16501;51.462;14.346;2022-12-18T00:04:07;101710.28;;;-5.07;100.00
29569;BME280;16501;51.462;14.346;2022-12-18T00:06:33;101752.84;;;-4.89;100.00
29569;BME280;16501;51.462;14.346;2022-12-18T00:09:01;101774.03;;;-4.77;100.00
29569;BME280;16501;51.462;14.346;2022-12-18T00:11:28;101741.25;;;-4.86;100.00
29569;BME280;16501;51.462;14.346;2022-12-18T00:13:58;101752.16;;;-4.77;100.00
29569;BME280;16501;51.462;14.346;2022-12-18T00:16:26;101792.25;;;-4.60;100.00
29569;BME280;16501;51.462;14.346;2022-12-18T00:18:56;101816.06;;;-4.52;100.00
29569;BME280;16501;51.462;14.346;2022-12-18T00:21:21;101764.59;;;-4.88;100.00
29569;BME280;16501;51.462;14.346;2022-12-18T00:23:49;101743.81;;;-4.89;100.00
29569;BME280;16501;51.462;14.346;2022-12-18T00:26:17;101728.88;;;-4.92;100.00
29569;BME280;16501;51.462;14.346;2022-12-18T00:28:43;101739.63;;;-4.87;100.00
29569;BME280;16501;51.462;14.346;2022-12-18T00:31:13;101783.44;;;-4.66;100.00
29569;BME280;16501;51.462;14.346;2022-12-18T00:33:39;101779.56;;;-4.86;100.00
29569;BME280;16501;51.462;14.346;2022-12-18T00:36:09;101771.13;;;-4.81;100.00
29569;BME280;16501;51.462;14.346;2022-12-18T00:38:36;101775.94;;;-4.78;100.00
29569;BME280;16501;51.462;14.346;2022-12-18T00:41:02;101794.88;;;-4.64;100.00
29569;BME280;16501;51.462;14.346;2022-12-18T00:43:28;101805.31;;;-4.57;100.00
29569;BME280;16501;51.462;14.346;2022-12-18T00:45:53;101751.09;;;-4.94;100.00
29569;BME280;16501;51.462;14.346;2022-12-18T00:48:20;101770.75;;;-4.70;100.00
29569;BME280;16501;51.462;14.346;2022-12-18T00:50:47;101721.06;;;-5.02;100.00
29569;BME280;16501;51.462;14.346;2022-12-18T00:53:13;101749.94;;;-4.84;100.00
29569;BME280;16501;51.462;14.346;2022-12-18T00:55:41;101788.13;;;-4.66;100.00
29569;BME280;16501;51.462;14.346;2022-12-18T00:58:08;101788.00;;;-4.70;100.00
29569;BME280;16501;51.462;14.346;2022-12-18T01:00:34;101772.41;;;-4.78;100.00
29569;BME280;16501;51.462;14.346;2022-12-18T01:03:01;101750.03;;;-5.01;100.00
29569;BME280;16501;51.462;14.346;2022-12-18T01:05:27;101734.31;;;-5.13;100.00
29569;BME280;16501;51.462;14.346;2022-12-18T01:07:52;101809.16;;;-4.58;100.00
29569;BME280;16501;51.462;14.346;2022-12-18T01:10:18;101780.44;;;-4.73;100.00
29569;BME280;16501;51.462;14.346;2022-12-18T01:12:43;101775.94;;;-4.78;100.00
29569;BME280;16501;51.462;14.346;2022-12-18T01:15:09;101814.16;;;-4.60;100.00
29569;BME280;16501;51.462;14.346;2022-12-18T01:17:35;101775.84;;;-4.90;100.00
29569;BME280;16501;51.462;14.346;2022-12-18T01:20:00;101772.28;;;-4.82;100.00
29569;BME280;16501;51.462;14.346;2022-12-18T01:22:26;101801.13;;;-4.63;100.00
29569;BME280;16501;51.462;14.346;2022-12-18T01:24:51;101775.03;;;-4.82;100.00
29569;BME280;16501;51.462;14.346;2022-12-18T01:27:16;101804.94;;;-4.77;100.00
29569;BME280;16501;51.462;14.346;2022-12-18T01:29:42;101797.66;;;-4.72;100.00
29569;BME280;16501;51.462;14.346;2022-12-18T01:32:07;101758.50;;;-4.94;100.00
29569;BME280;16501;51.462;14.346;2022-12-18T01:34:34;101828.81;;;-4.56;100.00
29569;BME280;16501;51.462;14.346;2022-12-18T01:37:02;101796.13;;;-4.82;100.00
29569;BME280;16501;51.462;14.346;2022-12-18T01:39:30;101802.84;;;-4.80;100.00
29569;BME280;16501;51.462;14.346;2022-12-18T01:41:57;101797.38;;;-4.80;100.00
29569;BME280;16501;51.462;14.346;2022-12-18T01:45:22;101824.28;;;-4.52;100.00
29569;BME280;16501;51.462;14.346;2022-12-18T01:48:08;101807.75;;;-4.64;100.00
29569;BME280;16501;51.462;14.346;2022-12-18T01:50:41;101800.19;;;-4.67;100.00
29569;BME280;16501;51.462;14.346;2022-12-18T01:53:15;101824.28;;;-4.52;100.00
29569;BME280;16501;51.462;14.346;2022-12-18T01:55:58;101822.94;;;-4.76;100.00
29569;BME280;16501;51.462;14.346;2022-12-18T01:58:30;101820.84;;;-4.70;100.00
29569;BME280;16501;51.462;14.346;2022-12-18T02:00:58;101783.31;;;-4.99;100.00
29569;BME280;16501;51.462;14.346;2022-12-18T02:03:24;101847.53;;;-4.67;100.00
29569;BME280;16501;51.462;14.346;2022-12-18T02:12:04;101829.84;;;-4.69;100.00
29569;BME280;16501;51.462;14.346;2022-12-18T02:14:41;101818.28;;;-4.75;100.00
29569;BME280;16501;51.462;14.346;2022-12-18T02:17:48;101807.91;;;-4.90;100.00
29569;BME280;16501;51.462;14.346;2022-12-18T02:23:27;101820.56;;;-4.77;100.00
29569;BME280;16501;51.462;14.346;2022-12-18T02:28:42;101851.66;;;-4.52;100.00
29569;BME280;16501;51.462;14.346;2022-12-18T02:31:14;101848.78;;;-4.56;100.00
29569;BME280;16501;51.462;14.346;2022-12-18T02:33:43;101849.88;;;-4.57;100.00
29569;BME280;16501;51.462;14.346;2022-12-18T02:36:10;101777.38;;;-5.01;100.00
29569;BME280;16501;51.462;14.346;2022-12-18T02:38:39;101810.59;;;-4.82;100.00
29569;BME280;16501;51.462;14.346;2022-12-18T02:41:05;101793.75;;;-4.93;100.00
29569;BME280;16501;51.462;14.346;2022-12-18T02:43:31;101835.50;;;-4.75;100.00
29569;BME280;16501;51.462;14.346;2022-12-18T02:45:59;101848.22;;;-4.70;100.00
29569;BME280;16501;51.462;14.346;2022-12-18T02:48:30;101843.38;;;-4.73;100.00
29569;BME280;16501;51.462;14.346;2022-12-18T02:54:09;101851.69;;;-4.61;100.00
29569;BME280;16501;51.462;14.346;2022-12-18T02:56:42;101794.59;;;-5.01;100.00
29569;BME280;16501;51.462;14.346;2022-12-18T02:59:19;101793.97;;;-5.06;100.00
29569;BME280;16501;51.462;14.346;2022-12-18T03:01:56;101828.81;;;-4.86;100.00
29569;BME280;16501;51.462;14.346;2022-12-18T03:04:48;101796.63;;;-5.27;100.00
29569;BME280;16501;51.462;14.346;2022-12-18T03:07:18;101806.13;;;-4.95;100.00
29569;BME280;16501;51.462;14.346;2022-12-18T03:09:48;101856.75;;;-4.71;100.00
29569;BME280;16501;51.462;14.346;2022-12-18T03:12:21;101864.78;;;-4.66;100.00
29569;BME280;16501;51.462;14.346;2022-12-18T03:17:30;101841.56;;;-4.99;100.00
29569;BME280;16501;51.462;14.346;2022-12-18T03:19:58;101866.75;;;-4.84;100.00
29569;BME280;16501;51.462;14.346;2022-12-18T03:22:28;101852.66;;;-4.95;100.00
29569;BME280;16501;51.462;14.346;2022-12-18T03:24:56;101828.06;;;-5.04;100.00
29569;BME280;16501;51.462;14.346;2022-12-18T03:27:23;101840.38;;;-4.80;100.00
29569;BME280;16501;51.462;14.346;2022-12-18T03:30:22;101831.09;;;-4.97;100.00
29569;BME280;16501;51.462;14.346;2022-12-18T03:35:38;101832.88;;;-5.01;100.00
29569;BME280;16501;51.462;14.346;2022-12-18T03:38:05;101869.97;;;-4.74;100.00
29569;BME280;16501;51.462;14.346;2022-12-18T03:40:47;101865.78;;;-4.80;100.00
29569;BME280;16501;51.462;14.346;2022-12-18T03:43:29;101822.16;;;-5.15;100.00
29569;BME280;16501;51.462;14.346;2022-12-18T03:46:03;101840.75;;;-4.99;100.00
29569;BME280;16501;51.462;14.346;2022-12-18T03:48:44;101874.50;;;-4.86;100.00
29569;BME280;16501;51.462;14.346;2022-12-18T03:51:19;101842.84;;;-4.96;100.00
29569;BME280;16501;51.462;14.346;2022-12-18T03:53:58;101857.66;;;-4.97;100.00
29569;BME280;16501;51.462;14.346;2022-12-18T03:56:32;101859.25;;;-4.96;100.00
29569;BME280;16501;51.462;14.346;2022-12-18T03:59:00;101776.25;;;-5.47;100.00
29569;BME280;16501;51.462;14.346;2022-12-18T04:01:40;101799.88;;;-5.34;100.00
29569;BME280;16501;51.462;14.346;2022-12-18T04:04:08;101880.16;;;-4.92;100.00
29569;BME280;16501;51.462;14.346;2022-12-18T04:06:35;101858.78;;;-5.07;100.00
29569;BME280;16501;51.462;14.346;2022-12-18T04:09:02;101857.69;;;-5.06;100.00
29569;BME280;16501;51.462;14.346;2022-12-18T04:11:28;101852.09;;;-5.27;100.00
29569;BME280;16501;51.462;14.346;2022-12-18T04:13:58;101890.94;;;-4.95;100.00
29569;BME280;16501;51.462;14.346;2022-12-18T04:16:25;101868.44;;;-5.01;100.00
29569;BME280;16501;51.462;14.346;2022-12-18T04:18:51;101895.63;;;-4.96;100.00
29569;BME280;16501;51.462;14.346;2022-12-18T04:21:18;101838.00;;;-5.38;100.00
29569;BME280;16501;51.462;14.346;2022-12-18T04:23:45;101859.84;;;-5.38;100.00
29569;BME280;16501;51.462;14.346;2022-12-18T04:26:11;101899.66;;;-5.02;100.00
29569;BME280;16501;51.462;14.346;2022-12-18T04:28:36;101873.28;;;-5.06;100.00
29569;BME280;16501;51.462;14.346;2022-12-18T04:31:02;101862.88;;;-5.22;100.00
29569;BME280;16501;51.462;14.346;2022-12-18T04:33:27;101911.72;;;-4.94;100.00
29569;BME280;16501;51.462;14.346;2022-12-18T04:35:54;101869.63;;;-5.28;100.00
29569;BME280;16501;51.462;14.346;2022-12-18T04:38:20;101885.88;;;-5.23;100.00
29569;BME280;16501;51.462;14.346;2022-12-18T04:40:45;101885.56;;;-5.30;100.00
29569;BME280;16501;51.462;14.346;2022-12-18T04:43:11;101888.94;;;-5.24;100.00
29569;BME280;16501;51.462;14.346;2022-12-18T04:45:36;101887.50;;;-5.22;100.00
29569;BME280;16501;51.462;14.346;2022-12-18T04:48:03;101894.25;;;-5.28;100.00
29569;BME280;16501;51.462;14.346;2022-12-18T04:50:29;101874.50;;;-5.51;100.00
29569;BME280;16501;51.462;14.346;2022-12-18T04:52:56;101908.75;;;-5.27;100.00
29569;BME280;16501;51.462;14.346;2022-12-18T04:55:25;101920.78;;;-5.28;100.00
29569;BME280;16501;51.462;14.346;2022-12-18T04:57:50;101908.09;;;-5.51;100.00
29569;BME280;16501;51.462;14.346;2022-12-18T05:00:16;101907.59;;;-5.35;100.00
29569;BME280;16501;51.462;14.346;2022-12-18T05:02:41;101880.13;;;-5.47;100.00
29569;BME280;16501;51.462;14.346;2022-12-18T05:05:07;101906.00;;;-5.36;100.00
29569;BME280;16501;51.462;14.346;2022-12-18T05:07:33;101916.63;;;-5.26;100.00
29569;BME280;16501;51.462;14.346;2022-12-18T05:09:58;101868.56;;;-5.62;100.00
29569;BME280;16501;51.462;14.346;2022-12-18T05:12:23;101889.78;;;-5.41;100.00
29569;BME280;16501;51.462;14.346;2022-12-18T05:14:49;101911.81;;;-5.38;100.00
29569;BME280;16501;51.462;14.346;2022-12-18T05:17:14;101893.13;;;-5.36;100.00
29569;BME280;16501;51.462;14.346;2022-12-18T05:19:40;101904.69;;;-5.30;100.00
29569;BME280;16501;51.462;14.346;2022-12-18T05:22:07;101916.28;;;-5.24;100.00
29569;BME280;16501;51.462;14.346;2022-12-18T05:24:33;101914.06;;;-5.31;100.00
29569;BME280;16501;51.462;14.346;2022-12-18T05:26:58;101899.72;;;-5.37;100.00
29569;BME280;16501;51.462;14.346;2022-12-18T05:29:23;101905.38;;;-5.51;100.00
29569;BME280;16501;51.462;14.346;2022-12-18T05:31:49;101913.25;;;-5.40;100.00
29569;BME280;16501;51.462;14.346;2022-12-18T05:34:14;101938.31;;;-5.38;100.00
29569;BME280;16501;51.462;14.346;2022-12-18T05:36:39;101937.69;;;-5.35;100.00
29569;BME280;16501;51.462;14.346;2022-12-18T05:39:05;101896.22;;;-5.55;100.00
29569;BME280;16501;51.462;14.346;2022-12-18T05:41:31;101933.69;;;-5.38;100.00
29569;BME280;16501;51.462;14.346;2022-12-18T05:43:56;101872.59;;;-5.85;100.00
29569;BME280;16501;51.462;14.346;2022-12-18T05:46:21;101921.91;;;-5.73;100.00
29569;BME280;16501;51.462;14.346;2022-12-18T05:48:47;101939.47;;;-5.48;100.00
29569;BME280;16501;51.462;14.346;2022-12-18T05:51:15;101946.19;;;-5.45;100.00
29569;BME280;16501;51.462;14.346;2022-12-18T05:53:41;101913.56;;;-5.68;100.00
29569;BME280;16501;51.462;14.346;2022-12-18T05:56:12;101921.13;;;-5.65;100.00
29569;BME280;16501;51.462;14.346;2022-12-18T05:58:38;101947.66;;;-5.39;100.00
29569;BME280;16501;51.462;14.346;2022-12-18T06:01:17;101944.94;;;-5.39;100.00
29569;BME280;16501;51.462;14.346;2022-12-18T06:03:42;101939.63;;;-5.44;100.00
29569;BME280;16501;51.462;14.346;2022-12-18T06:08:40;101947.97;;;-5.41;100.00
29569;BME280;16501;51.462;14.346;2022-12-18T06:11:06;101929.66;;;-5.49;100.00
29569;BME280;16501;51.462;14.346;2022-12-18T06:13:31;101897.16;;;-5.68;100.00
29569;BME280;16501;51.462;14.346;2022-12-18T06:16:00;101945.88;;;-5.44;100.00
29569;BME280;16501;51.462;14.346;2022-12-18T06:18:26;101960.84;;;-5.41;100.00
29569;BME280;16501;51.462;14.346;2022-12-18T06:20:59;101951.66;;;-5.54;100.00
29569;BME280;16501;51.462;14.346;2022-12-18T06:23:24;101979.16;;;-5.51;100.00
29569;BME280;16501;51.462;14.346;2022-12-18T06:25:49;101912.13;;;-5.92;100.00
29569;BME280;16501;51.462;14.346;2022-12-18T06:28:16;101969.53;;;-5.65;100.00
29569;BME280;16501;51.462;14.346;2022-12-18T06:30:46;101955.53;;;-5.73;100.00
29569;BME280;16501;51.462;14.346;2022-12-18T06:33:12;101992.19;;;-5.65;100.00
29569;BME280;16501;51.462;14.346;2022-12-18T06:35:37;101968.84;;;-5.89;100.00
29569;BME280;16501;51.462;14.346;2022-12-18T06:38:02;101976.38;;;-5.94;100.00
29569;BME280;16501;51.462;14.346;2022-12-18T06:40:28;101953.59;;;-5.98;100.00
29569;BME280;16501;51.462;14.346;2022-12-18T06:42:53;101941.38;;;-6.01;100.00
29569;BME280;16501;51.462;14.346;2022-12-18T06:45:19;101955.69;;;-5.87;100.00
29569;BME280;16501;51.462;14.346;2022-12-18T06:47:45;101959.22;;;-5.77;100.00
29569;BME280;16501;51.462;14.346;2022-12-18T06:50:12;101992.34;;;-5.70;100.00
29569;BME280;16501;51.462;14.346;2022-12-18T06:52:37;101996.22;;;-5.71;100.00
29569;BME280;16501;51.462;14.346;2022-12-18T06:55:05;102005.81;;;-5.82;100.00
29569;BME280;16501;51.462;14.346;2022-12-18T06:57:30;101994.88;;;-5.82;100.00
29569;BME280;16501;51.462;14.346;2022-12-18T06:59:58;101985.06;;;-5.92;100.00
29569;BME280;16501;51.462;14.346;2022-12-18T07:02:24;101979.75;;;-6.06;100.00
29569;BME280;16501;51.462;14.346;2022-12-18T07:04:49;102005.66;;;-5.86;100.00
29569;BME280;16501;51.462;14.346;2022-12-18T07:07:14;102004.03;;;-5.87;100.00
29569;BME280;16501;51.462;14.346;2022-12-18T07:09:40;101944.97;;;-6.40;100.00
29569;BME280;16501;51.462;14.346;2022-12-18T07:12:05;102001.72;;;-6.20;100.00
29569;BME280;16501;51.462;14.346;2022-12-18T07:14:32;102044.41;;;-5.75;100.00
29569;BME280;16501;51.462;14.346;2022-12-18T07:16:58;101986.03;;;-6.05;100.00
29569;BME280;16501;51.462;14.346;2022-12-18T07:19:23;101963.34;;;-6.06;100.00
29569;BME280;16501;51.462;14.346;2022-12-18T07:21:50;102021.59;;;-5.79;100.00
29569;BME280;16501;51.462;14.346;2022-12-18T07:24:15;101993.91;;;-6.04;100.00
29569;BME280;16501;51.462;14.346;2022-12-18T07:26:41;101951.84;;;-6.43;100.00
29569;BME280;16501;51.462;14.346;2022-12-18T07:29:07;101999.50;;;-6.18;100.00
29569;BME280;16501;51.462;14.346;2022-12-18T07:31:33;102034.72;;;-5.99;100.00
29569;BME280;16501;51.462;14.346;2022-12-18T07:33:58;102010.88;;;-6.24;100.00
29569;BME280;16501;51.462;14.346;2022-12-18T07:36:24;102002.03;;;-6.21;100.00
29569;BME280;16501;51.462;14.346;2022-12-18T07:38:51;102031.59;;;-6.15;100.00
29569;BME280;16501;51.462;14.346;2022-12-18T07:41:18;102013.09;;;-6.27;100.00
29569;BME280;16501;51.462;14.346;2022-12-18T07:43:44;102072.16;;;-5.91;100.00
29569;BME280;16501;51.462;14.346;2022-12-18T07:46:10;102033.91;;;-5.99;100.00
29569;BME280;16501;51.462;14.346;2022-12-18T07:48:36;102046.91;;;-6.05;100.00
29569;BME280;16501;51.462;14.346;2022-12-18T07:51:05;101978.84;;;-6.41;100.00
29569;BME280;16501;51.462;14.346;2022-12-18T07:53:32;102079.44;;;-5.77;100.00
29569;BME280;16501;51.462;14.346;2022-12-18T07:56:07;102033.75;;;-6.03;100.00
29569;BME280;16501;51.462;14.346;2022-12-18T07:58:34;102069.63;;;-5.78;100.00
29569;BME280;16501;51.462;14.346;2022-12-18T08:03:30;102069.66;;;-5.70;100.00
29569;BME280;16501;51.462;14.346;2022-12-18T08:06:05;102052.75;;;-5.80;100.00
29569;BME280;16501;51.462;14.346;2022-12-18T08:08:36;102042.13;;;-5.82;100.00
29569;BME280;16501;51.462;14.346;2022-12-18T08:11:01;102024.13;;;-5.92;100.00
29569;BME280;16501;51.462;14.346;2022-12-18T08:13:28;102058.22;;;-5.72;100.00
29569;BME280;16501;51.462;14.346;2022-12-18T08:15:59;102011.75;;;-5.98;100.00
29569;BME280;16501;51.462;14.346;2022-12-18T08:18:25;102041.66;;;-5.84;100.00
29569;BME280;16501;51.462;14.346;2022-12-18T08:20:51;102055.19;;;-5.70;100.00
29569;BME280;16501;51.462;14.346;2022-12-18T08:23:18;102026.38;;;-5.94;100.00
29569;BME280;16501;51.462;14.346;2022-12-18T08:25:43;102050.81;;;-5.89;100.00
29569;BME280;16501;51.462;14.346;2022-12-18T08:28:10;102043.25;;;-5.92;100.00
29569;BME280;16501;51.462;14.346;2022-12-18T08:30:36;101976.44;;;-6.34;100.00
29569;BME280;16501;51.462;14.346;2022-12-18T08:33:06;101983.84;;;-6.35;100.00
29569;BME280;16501;51.462;14.346;2022-12-18T08:35:37;102032.13;;;-6.13;100.00
29569;BME280;16501;51.462;14.346;2022-12-18T08:38:03;102006.28;;;-6.38;100.00
29569;BME280;16501;51.462;14.346;2022-12-18T08:40:29;101974.81;;;-6.44;100.00
29569;BME280;16501;51.462;14.346;2022-12-18T08:42:54;102026.97;;;-6.14;100.00
29569;BME280;16501;51.462;14.346;2022-12-18T08:45:38;102016.84;;;-6.14;100.00
29569;BME280;16501;51.462;14.346;2022-12-18T08:48:05;102044.34;;;-5.93;100.00
29569;BME280;16501;51.462;14.346;2022-12-18T08:50:31;102037.44;;;-6.08;100.00
29569;BME280;16501;51.462;14.346;2022-12-18T08:52:56;102054.19;;;-5.83;100.00
29569;BME280;16501;51.462;14.346;2022-12-18T08:55:22;102060.78;;;-5.75;100.00
29569;BME280;16501;51.462;14.346;2022-12-18T08:57:48;102050.50;;;-5.78;100.00
29569;BME280;16501;51.462;14.346;2022-12-18T09:00:14;102039.09;;;-5.72;100.00
29569;BME280;16501;51.462;14.346;2022-12-18T09:02:40;102056.34;;;-5.62;100.00
29569;BME280;16501;51.462;14.346;2022-12-18T09:05:05;102063.22;;;-5.74;100.00
29569;BME280;16501;51.462;14.346;2022-12-18T09:07:31;101981.94;;;-6.26;100.00
29569;BME280;16501;51.462;14.346;2022-12-18T09:09:57;101979.69;;;-6.23;100.00
29569;BME280;16501;51.462;14.346;2022-12-18T09:12:22;101997.75;;;-6.05;100.00
29569;BME280;16501;51.462;14.346;2022-12-18T09:14:47;102004.38;;;-5.97;100.00
29569;BME280;16501;51.462;14.346;2022-12-18T09:17:13;102044.09;;;-5.65;100.00
29569;BME280;16501;51.462;14.346;2022-12-18T09:19:38;101983.16;;;-6.00;100.00
29569;BME280;16501;51.462;14.346;2022-12-18T09:22:04;101946.81;;;-6.10;100.00
29569;BME280;16501;51.462;14.346;2022-12-18T09:24:29;102072.31;;;-5.21;100.00
29569;BME280;16501;51.462;14.346;2022-12-18T09:26:54;102017.28;;;-5.37;100.00
29569;BME280;16501;51.462;14.346;2022-12-18T09:29:20;102035.00;;;-5.08;100.00
29569;BME280;16501;51.462;14.346;2022-12-18T09:31:47;102041.25;;;-4.90;100.00
29569;BME280;16501;51.462;14.346;2022-12-18T09:34:14;101995.38;;;-4.84;100.00
29569;BME280;16501;51.462;14.346;2022-12-18T09:36:39;101998.09;;;-4.76;100.00
29569;BME280;16501;51.462;14.346;2022-12-18T09:39:04;102068.03;;;-4.31;100.00
29569;BME280;16501;51.462;14.346;2022-12-18T09:41:46;102081.19;;;-4.07;100.00
29569;BME280;16501;51.462;14.346;2022-12-18T09:44:33;102083.34;;;-3.83;100.00
29569;BME280;16501;51.462;14.346;2022-12-18T09:49:39;102077.88;;;-3.32;99.69
29569;BME280;16501;51.462;14.346;2022-12-18T09:52:29;102085.47;;;-3.29;96.39
29569;BME280;16501;51.462;14.346;2022-12-18T09:55:00;102056.72;;;-3.52;95.18
29569;BME280;16501;51.462;14.346;2022-12-18T09:57:29;102045.28;;;-3.54;94.07
29569;BME280;16501;51.462;14.346;2022-12-18T10:00:05;102099.66;;;-3.06;92.92
29569;BME280;16501;51.462;14.346;2022-12-18T10:02:34;102075.59;;;-2.88;93.23
29569;BME280;16501;51.462;14.346;2022-12-18T10:05:06;102102.66;;;-2.44;91.82
29569;BME280;16501;51.462;14.346;2022-12-18T10:07:47;102051.69;;;-2.66;88.98
29569;BME280;16501;51.462;14.346;2022-12-18T10:13:19;102083.88;;;-1.96;87.66
29569;BME280;16501;51.462;14.346;2022-12-18T10:21:40;102016.28;;;-1.97;82.01
29569;BME280;16501;51.462;14.346;2022-12-18T10:26:52;102019.13;;;-1.69;80.23
29569;BME280;16501;51.462;14.346;2022-12-18T10:29:19;102050.31;;;-1.53;80.37
29569;BME280;16501;51.462;14.346;2022-12-18T10:31:44;102025.22;;;-1.51;80.05
29569;BME280;16501;51.462;14.346;2022-12-18T10:34:14;102049.16;;;-1.39;80.12
29569;BME280;16501;51.462;14.346;2022-12-18T10:36:41;102039.19;;;-1.44;79.28
29569;BME280;16501;51.462;14.346;2022-12-18T10:41:42;102023.84;;;-1.69;79.75
29569;BME280;16501;51.462;14.346;2022-12-18T10:44:19;101995.78;;;-1.75;80.60
29569;BME280;16501;51.462;14.346;2022-12-18T10:46:51;102004.34;;;-1.52;78.48
29569;BME280;16501;51.462;14.346;2022-12-18T10:49:29;101953.16;;;-1.81;79.63
29569;BME280;16501;51.462;14.346;2022-12-18T10:52:15;102019.16;;;-1.16;80.06
29569;BME280;16501;51.462;14.346;2022-12-18T10:55:03;102008.38;;;-0.93;79.47
29569;BME280;16501;51.462;14.346;2022-12-18T10:57:37;101951.31;;;-1.37;78.25
29569;BME280;16501;51.462;14.346;2022-12-18T11:00:26;102019.31;;;-0.97;78.15
29569;BME280;16501;51.462;14.346;2022-12-18T11:02:53;101987.78;;;-0.99;78.30
29569;BME280;16501;51.462;14.346;2022-12-18T11:07:51;102002.97;;;-0.89;77.04
29569;BME280;16501;51.462;14.346;2022-12-18T11:10:21;101998.31;;;-1.01;76.65
29569;BME280;16501;51.462;14.346;2022-12-18T11:12:47;102006.47;;;-1.05;76.74
29569;BME280;16501;51.462;14.346;2022-12-18T11:15:37;102004.75;;;-1.38;77.67
29569;BME280;16501;51.462;14.346;2022-12-18T11:21:05;101972.69;;;-1.18;77.17
29569;BME280;16501;51.462;14.346;2022-12-18T11:23:31;101984.25;;;-1.12;77.45
29569;BME280;16501;51.462;14.346;2022-12-18T11:26:02;101956.72;;;-1.12;76.73
29569;BME280;16501;51.462;14.346;2022-12-18T11:28:37;101936.31;;;-1.11;75.72
29569;BME280;16501;51.462;14.346;2022-12-18T11:31:18;101960.38;;;-0.80;76.15
29569;BME280;16501;51.462;14.346;2022-12-18T11:33:50;101958.31;;;-0.83;75.38
29569;BME280;16501;51.462;14.346;2022-12-18T11:36:18;101965.72;;;-0.71;75.48
29569;BME280;16501;51.462;14.346;2022-12-18T11:38:47;101927.06;;;-0.74;75.73
29569;BME280;16501;51.462;14.346;2022-12-18T11:44:28;101984.31;;;-0.20;73.84
29569;BME280;16501;51.462;14.346;2022-12-18T11:47:20;101986.34;;;-0.17;73.60
29569;BME280;16501;51.462;14.346;2022-12-18T11:49:49;101933.88;;;-0.52;72.63
29569;BME280;16501;51.462;14.346;2022-12-18T11:52:19;101944.66;;;-0.31;73.89
29569;BME280;16501;51.462;14.346;2022-12-18T11:54:46;101976.63;;;0.05;74.05
29569;BME280;16501;51.462;14.346;2022-12-18T11:57:39;101980.34;;;0.13;71.50
29569;BME280;16501;51.462;14.346;2022-12-18T12:00:20;101970.53;;;0.15;71.71
29569;BME280;16501;51.462;14.346;2022-12-18T12:09:24;101967.84;;;-0.16;70.65
29569;BME280;16501;51.462;14.346;2022-12-18T12:17:44;101915.94;;;-0.30;72.53
29569;BME280;16501;51.462;14.346;2022-12-18T12:20:20;101962.31;;;-0.01;70.36
29569;BME280;16501;51.462;14.346;2022-12-18T12:22:58;101975.22;;;-0.05;69.36
29569;BME280;16501;51.462;14.346;2022-12-18T12:28:15;101974.63;;;-0.14;70.71
29569;BME280;16501;51.462;14.346;2022-12-18T12:39:08;101966.69;;;-0.63;72.21
29569;BME280;16501;51.462;14.346;2022-12-18T12:41:39;101936.09;;;-0.90;72.05
29569;BME280;16501;51.462;14.346;2022-12-18T12:44:27;101985.25;;;-0.60;71.83
29569;BME280;16501;51.462;14.346;2022-12-18T12:46:58;101924.41;;;-1.15;72.49
29569;BME280;16501;51.462;14.346;2022-12-18T12:49:28;101972.34;;;-0.88;72.07
29569;BME280;16501;51.462;14.346;2022-12-18T12:52:05;101967.19;;;-1.18;72.64
29569;BME280;16501;51.462;14.346;2022-12-18T12:54:33;101973.53;;;-1.01;71.52
29569;BME280;16501;51.462;14.346;2022-12-18T13:08:04;101998.75;;;-1.27;74.67
29569;BME280;16501;51.462;14.346;2022-12-18T13:13:15;101998.66;;;-1.31;74.15
29569;BME280;16501;51.462;14.346;2022-12-18T13:16:02;101994.94;;;-1.51;73.91
29569;BME280;16501;51.462;14.346;2022-12-18T13:18:29;101966.78;;;-1.73;74.22
29569;BME280;16501;51.462;14.346;2022-12-18T13:25:56;102000.00;;;-1.78;76.03
29569;BME280;16501;51.462;14.346;2022-12-18T13:34:39;101991.09;;;-2.12;77.58
29569;BME280;16501;51.462;14.346;2022-12-18T13:39:58;101963.84;;;-2.54;78.43
29569;BME280;16501;51.462;14.346;2022-12-18T13:45:37;101965.06;;;-2.51;78.78
29569;BME280;16501;51.462;14.346;2022-12-18T13:48:04;101977.81;;;-2.47;78.60
29569;BME280;16501;51.462;14.346;2022-12-18T13:50:29;101926.38;;;-2.83;79.42
29569;BME280;16501;51.462;14.346;2022-12-18T13:52:57;101979.03;;;-2.56;79.34
29569;BME280;16501;51.462;14.346;2022-12-18T13:55:23;101955.78;;;-2.71;79.02
29569;BME280;16501;51.462;14.346;2022-12-18T13:57:48;101998.97;;;-2.47;79.62
29569;BME280;16501;51.462;14.346;2022-12-18T14:00:24;101991.97;;;-2.44;79.50
29569;BME280;16501;51.462;14.346;2022-12-18T14:02:50;101967.66;;;-2.79;79.61
29569;BME280;16501;51.462;14.346;2022-12-18T14:05:30;101997.03;;;-2.47;79.98
29569;BME280;16501;51.462;14.346;2022-12-18T14:08:09;101917.84;;;-3.03;80.23
29569;BME280;16501;51.462;14.346;2022-12-18T14:10:40;101975.50;;;-2.57;80.27
29569;BME280;16501;51.462;14.346;2022-12-18T14:13:10;101999.06;;;-2.56;80.95
29569;BME280;16501;51.462;14.346;2022-12-18T14:15:41;101999.84;;;-2.68;81.35
29569;BME280;16501;51.462;14.346;2022-12-18T14:20:47;101993.66;;;-2.77;82.60
29569;BME280;16501;51.462;14.346;2022-12-18T14:23:29;101994.09;;;-2.75;81.96
29569;BME280;16501;51.462;14.346;2022-12-18T14:25:55;101955.00;;;-3.05;82.55
29569;BME280;16501;51.462;14.346;2022-12-18T14:28:21;101930.34;;;-3.26;82.39
29569;BME280;16501;51.462;14.346;2022-12-18T14:30:48;101902.66;;;-3.33;82.82
29569;BME280;16501;51.462;14.346;2022-12-18T14:33:16;101944.09;;;-3.14;82.60